Andrew, Iowa
Current Conditions -  °F | °C
As of 6:53 AM on Thursday 30 Oct 2014 (Local Time) from KDBQ Reporting Station
Broken Clouds Broken Clouds  
Wind Chill: -3°   Ceiling: 11000
Heat Index:   Visibility: 10mi
Dew Point: -1°   Wind: 6mph
Humidity: 96%   Direction: 200°SSW
Pressure: 30.09"   Gusts: NA
Location:  42.15°N, 90.59°W
Report Text: KDBQ 301153Z 20005KT 10SM BKN110 00/M01 A3009 RMK AO2 SLP201 T00001006 10017 21011 56004
Loading
Personal Weather Stations






























Interactive Weather Map
Tropical Storm Tracking
New forecast layout! Learn more

10-Day Weather Forecast

Advertisements
Track Severe Weather on mobile